Time;durP1;ratioP1;P1;durP2;ratioP2;P2;SDS_P1;SDS_P2;PMS_P1;PMS_P2;Temp;Humidity;BMP_temperature;BMP_pressure;BME280_temperature;BME280_humidity;BME280_pressure;Samples;Min_cycle;Max_cycle;Signal;HPM_P1;HPM_P2
2023/12/05 07:35:09;;;;;;;5.55;2.00;;;;;;;2.87;100.00;95533.19;2076078;28;20929;-65
2023/12/05 07:36:11;;;;;;;3.80;2.17;;;;;;;3.25;97.83;95547.44;2073842;28;20205;-64
2023/12/05 07:37:13;;;;;;;4.68;2.17;;;;;;;3.62;95.47;95535.03;2072127;28;20197;-65
2023/12/05 07:38:15;;;;;;;3.95;1.88;;;;;;;3.89;93.13;95522.03;2071644;28;20244;-65
2023/12/05 07:39:16;;;;;;;5.55;1.83;;;;;;;4.11;92.22;95529.00;2073768;28;20425;-65
2023/12/05 07:40:18;;;;;;;2.35;1.52;;;;;;;4.44;90.36;95536.38;2061466;28;20225;-65
2023/12/05 07:41:20;;;;;;;6.07;1.65;;;;;;;4.41;88.75;95522.66;2062745;28;20198;-65
2023/12/05 07:42:22;;;;;;;2.75;1.58;;;;;;;4.45;88.92;95507.03;2065836;28;20442;-66
2023/12/05 07:43:24;;;;;;;7.88;1.63;;;;;;;4.67;88.14;95546.69;2062265;28;20646;-65
2023/12/05 07:44:27;;;;;;;6.55;1.92;;;;;;;4.64;87.41;95538.19;2064168;28;20207;-66
2023/12/05 07:45:28;;;;;;;7.43;1.35;;;;;;;4.70;87.11;95536.22;2065763;28;20249;-66
2023/12/05 07:46:30;;;;;;;6.25;1.77;;;;;;;4.77;86.95;95539.41;2066454;28;20204;-65
2023/12/05 07:47:31;;;;;;;7.38;1.75;;;;;;;4.95;86.51;95529.22;2064735;28;20608;-65
2023/12/05 07:48:33;;;;;;;5.13;1.63;;;;;;;5.03;85.41;95538.38;2062181;28;20205;-65
2023/12/05 07:49:35;;;;;;;7.47;2.05;;;;;;;4.39;87.18;95539.13;2062501;28;20754;-65
2023/12/05 07:50:36;;;;;;;4.30;1.50;;;;;;;3.96;88.79;95530.38;2065032;28;20202;-65
2023/12/05 07:51:37;;;;;;;4.22;1.77;;;;;;;4.31;88.68;95531.66;2064340;28;20216;-65
2023/12/05 07:52:39;;;;;;;3.85;1.65;;;;;;;4.76;86.96;95534.28;2065455;28;20201;-66
2023/12/05 07:53:40;;;;;;;6.03;1.88;;;;;;;4.82;86.55;95534.03;2065288;28;20695;-66
2023/12/05 07:54:42;;;;;;;6.00;1.80;;;;;;;4.87;86.36;95548.47;2063147;28;20878;-66
2023/12/05 07:55:43;;;;;;;6.43;1.80;;;;;;;4.78;85.80;95537.66;2064234;28;20267;-66
2023/12/05 07:56:45;;;;;;;6.05;2.25;;;;;;;4.61;86.84;95543.47;2066339;28;20694;-65
2023/12/05 07:57:47;;;;;;;4.03;1.48;;;;;;;5.07;85.56;95541.69;2065331;28;20201;-64
2023/12/05 07:58:49;;;;;;;4.43;1.30;;;;;;;5.67;83.50;95535.75;2065551;28;20206;-64
2023/12/05 07:59:50;;;;;;;4.72;1.85;;;;;;;5.65;82.32;95534.97;2066430;28;20276;-65
2023/12/05 08:00:52;;;;;;;3.95;1.85;;;;;;;5.79;81.89;95550.78;2066678;28;20860;-64
2023/12/05 08:01:54;;;;;;;3.20;1.42;;;;;;;6.18;80.74;95538.75;2065440;28;20720;-65
2023/12/05 08:02:56;;;;;;;4.57;1.60;;;;;;;6.31;79.69;95533.84;2063732;28;20202;-65
2023/12/05 08:04:01;;;;;;;7.32;1.95;;;;;;;6.53;79.18;95539.72;2065136;28;20563;-66
2023/12/05 08:05:03;;;;;;;2.90;1.33;;;;;;;6.51;78.56;95548.47;2064178;28;20228;-65
2023/12/05 08:06:05;;;;;;;3.58;1.50;;;;;;;6.63;78.27;95542.75;2065533;28;20206;-66
2023/12/05 08:07:08;;;;;;;3.75;1.30;;;;;;;6.75;77.74;95541.31;2073269;28;20711;-65
2023/12/05 08:08:09;;;;;;;3.30;1.30;;;;;;;6.46;77.61;95545.25;2072602;28;20209;-66
2023/12/05 08:09:11;;;;;;;7.47;1.80;;;;;;;-145.49;100.00;55703.94;2063434;28;20191;-66
2023/12/05 08:10:12;;;;;;;5.10;2.03;;;;;;;6.46;77.61;95545.25;2062827;28;20222;-66
2023/12/05 08:11:14;;;;;;;2.90;1.50;;;;;;;6.36;78.65;95550.88;2062153;28;20234;-65
2023/12/05 08:12:15;;;;;;;8.02;1.30;;;;;;;6.45;78.60;95544.44;2062620;28;20545;-66
2023/12/05 08:13:18;;;;;;;3.63;1.40;;;;;;;6.53;78.23;95546.69;2064608;28;20599;-67
2023/12/05 08:14:21;;;;;;;7.70;1.70;;;;;;;6.65;77.75;95543.53;2058797;28;20214;-64
2023/12/05 08:15:22;;;;;;;2.53;1.30;;;;;;;6.74;77.25;95549.19;2061996;28;20206;-66
2023/12/05 08:16:24;;;;;;;5.93;1.10;;;;;;;6.32;78.81;95551.06;2065392;28;20202;-66
2023/12/05 08:17:26;;;;;;;4.63;1.77;;;;;;;6.40;78.33;95556.78;2062086;28;20560;-66
2023/12/05 08:18:27;;;;;;;6.40;1.60;;;;;;;6.13;78.77;95556.25;2062642;28;20198;-66
2023/12/05 08:19:29;;;;;;;3.95;1.58;;;;;;;6.32;79.17;95557.13;2061974;28;20198;-66
2023/12/05 08:20:31;;;;;;;9.73;1.90;;;;;;;6.22;78.77;95563.59;2062401;28;20237;-65
2023/12/05 08:21:32;;;;;;;3.63;1.20;;;;;;;5.74;80.35;95557.91;2063233;28;20202;-66
2023/12/05 08:22:34;;;;;;;3.22;1.20;;;;;;;5.69;80.90;95562.44;2063944;28;20206;-66
2023/12/05 08:23:35;;;;;;;5.68;1.33;;;;;;;6.11;80.09;95550.31;2066153;28;20281;-66
2023/12/05 08:24:37;;;;;;;4.68;1.25;;;;;;;6.72;77.99;95564.81;2064460;28;20202;-66
2023/12/05 08:25:39;;;;;;;4.72;1.35;;;;;;;6.73;77.68;95558.72;2065506;28;20194;-65
2023/12/05 08:26:40;;;;;;;5.82;1.42;;;;;;;7.28;76.50;95562.19;2068222;28;20560;-66
2023/12/05 08:27:42;;;;;;;4.07;1.13;;;;;;;7.48;75.28;95563.81;2066436;28;20218;-66
2023/12/05 08:28:44;;;;;;;3.05;1.30;;;;;;;7.51;74.47;95561.88;2067196;28;20198;-66
2023/12/05 08:29:45;;;;;;;5.30;1.60;;;;;;;7.86;73.82;95558.44;2066403;28;20662;-66
2023/12/05 08:30:47;;;;;;;5.20;1.75;;;;;;;7.93;73.15;95557.19;2064803;28;20202;-66
2023/12/05 08:31:48;;;;;;;5.65;1.98;;;;;;;8.15;72.61;95553.47;2065403;28;20199;-64
2023/12/05 08:32:50;;;;;;;5.97;1.58;;;;;;;7.99;72.53;95556.06;2065243;28;20290;-64
2023/12/05 08:33:51;;;;;;;4.80;1.40;;;;;;;7.98;72.69;95559.56;2065038;28;20206;-64
2023/12/05 08:34:53;;;;;;;3.58;1.27;;;;;;;8.03;72.32;95556.75;2064812;28;20222;-64
2023/12/05 08:35:55;;;;;;;4.47;1.40;;;;;;;7.97;72.69;95553.53;2065178;28;20234;-64
2023/12/05 08:36:56;;;;;;;3.10;1.10;;;;;;;7.96;72.49;95544.06;2066099;28;20278;-64
2023/12/05 08:37:58;;;;;;;4.95;1.30;;;;;;;7.72;72.45;95550.50;2067382;28;20233;-64
2023/12/05 08:38:59;;;;;;;7.55;1.70;;;;;;;7.78;72.66;95540.66;2066019;28;20241;-64
2023/12/05 08:40:02;;;;;;;7.43;1.35;;;;;;;8.13;72.08;95550.97;2065296;28;20218;-63
2023/12/05 08:41:03;;;;;;;3.78;1.10;;;;;;;8.61;71.05;95561.47;2064582;28;20205;-63
2023/12/05 08:42:05;;;;;;;4.97;1.60;;;;;;;8.18;70.77;95555.94;2065959;28;20245;-64
2023/12/05 08:43:07;;;;;;;5.05;1.33;;;;;;;7.91;71.54;95569.44;2064520;28;20206;-63
2023/12/05 08:44:08;;;;;;;4.80;1.27;;;;;;;7.97;72.43;95563.06;2063365;28;20255;-64
2023/12/05 08:45:10;;;;;;;3.67;1.27;;;;;;;7.74;72.18;95559.06;2063652;28;20245;-66
2023/12/05 08:46:12;;;;;;;1.92;0.90;;;;;;;7.74;72.64;95559.06;2058318;28;20245;-65
2023/12/05 08:47:13;;;;;;;6.88;1.23;;;;;;;7.73;72.50;95559.97;2058983;28;20232;-64
2023/12/05 08:48:15;;;;;;;4.25;1.27;;;;;;;7.60;72.88;95567.56;2059757;28;20230;-63
2023/12/05 08:49:17;;;;;;;2.63;1.30;;;;;;;8.07;72.14;95563.44;2058694;28;20218;-64
2023/12/05 08:50:18;;;;;;;4.32;1.20;;;;;;;7.92;71.81;95572.88;2056697;28;20230;-65
2023/12/05 08:51:20;;;;;;;3.60;1.52;;;;;;;6.98;74.26;95561.00;2058517;28;20207;-65
2023/12/05 08:52:21;;;;;;;3.08;1.20;;;;;;;6.96;75.42;95564.59;2060704;28;20554;-64
2023/12/05 08:53:23;;;;;;;5.20;1.40;;;;;;;6.39;75.27;95521.38;2062913;28;20194;-65
2023/12/05 08:54:25;;;;;;;4.25;1.95;;;;;;;6.83;76.16;95580.72;2056807;28;20851;-64
2023/12/05 08:55:27;;;;;;;5.55;1.40;;;;;;;7.30;73.72;95571.59;2058968;28;20247;-66
2023/12/05 08:56:28;;;;;;;6.82;1.80;;;;;;;7.54;73.54;95575.66;2059563;28;20213;-65
2023/12/05 08:57:30;;;;;;;8.38;2.35;;;;;;;7.83;72.34;95580.22;2060265;28;20206;-66
2023/12/05 08:58:31;;;;;;;4.15;1.50;;;;;;;8.08;72.13;95585.94;2060700;28;20690;-65
2023/12/05 08:59:32;;;;;;;3.95;1.27;;;;;;;8.39;71.30;95574.75;2057893;28;20196;-60
2023/12/05 09:00:34;;;;;;;4.50;1.50;;;;;;;8.27;71.34;95576.25;2061603;28;20207;-60
2023/12/05 09:01:35;;;;;;;3.60;0.90;;;;;;;8.45;70.79;95563.19;2059704;28;20198;-61
2023/12/05 09:02:37;;;;;;;7.25;1.58;;;;;;;9.00;69.78;95572.38;2056128;28;20207;-60
2023/12/05 09:03:39;;;;;;;4.25;1.40;;;;;;;8.79;68.64;95558.81;2056416;28;20199;-61
2023/12/05 09:04:40;;;;;;;7.65;1.10;;;;;;;9.11;68.54;95564.81;2059381;28;20767;-61
2023/12/05 09:05:42;;;;;;;5.18;1.15;;;;;;;8.93;68.19;95581.47;2058411;28;20282;-61
2023/12/05 09:06:44;;;;;;;13.00;5.82;;;;;;;8.93;68.46;95573.66;2060759;28;20210;-60
2023/12/05 09:07:45;;;;;;;10.88;4.72;;;;;;;8.74;69.16;95581.63;2060781;28;20194;-60
2023/12/05 09:08:51;;;;;;;8.05;3.05;;;;;;;9.08;68.43;95582.41;2060206;28;20286;-61
2023/12/05 09:09:52;;;;;;;4.43;1.70;;;;;;;8.93;67.85;95578.88;2058808;28;20388;-61
2023/12/05 09:10:57;;;;;;;2.75;1.10;;;;;;;9.06;68.19;95577.25;2060260;28;20211;-61
2023/12/05 09:11:59;;;;;;;8.13;1.45;;;;;;;9.37;67.06;95578.16;2060614;28;20230;-61
2023/12/05 09:13:01;;;;;;;7.07;1.20;;;;;;;9.35;67.06;95566.97;2059321;28;20245;-61
2023/12/05 09:14:04;;;;;;;3.63;1.00;;;;;;;9.61;66.63;95570.69;2059522;28;20651;-61
2023/12/05 09:15:05;;;;;;;3.70;1.17;;;;;;;9.69;66.19;95583.28;2052861;28;20222;-61
2023/12/05 09:16:08;;;;;;;2.28;0.98;;;;;;;9.83;65.52;95576.41;2058824;28;20234;-66
2023/12/05 09:17:15;;;;;;;4.07;1.23;;;;;;;9.32;66.74;95573.19;2060722;28;20229;-66
2023/12/05 09:18:16;;;;;;;3.40;1.13;;;;;;;8.99;67.47;95589.78;2059865;28;20206;-66
2023/12/05 09:19:19;;;;;;;6.97;1.40;;;;;;;8.92;68.22;95578.00;2057352;28;20198;-65
2023/12/05 09:20:20;;;;;;;5.40;1.20;;;;;;;9.07;67.79;95589.34;2054462;28;20269;-66
2023/12/05 09:21:22;;;;;;;2.75;1.30;;;;;;;9.29;67.10;95585.53;2057364;28;20261;-65
2023/12/05 09:22:23;;;;;;;2.63;0.98;;;;;;;8.96;67.51;95594.31;2055964;28;20199;-65
2023/12/05 09:23:25;;;;;;;4.65;1.23;;;;;;;8.78;68.36;95588.34;2058737;28;20874;-65
2023/12/05 09:24:28;;;;;;;5.68;1.30;;;;;;;8.88;68.21;95602.53;2055322;28;20286;-64
2023/12/05 09:25:29;;;;;;;2.45;0.80;;;;;;;8.87;68.34;95589.63;2056677;28;20214;-66
2023/12/05 09:26:31;;;;;;;3.85;0.90;;;;;;;9.12;67.64;95595.13;2060716;28;20198;-65
2023/12/05 09:27:32;;;;;;;5.68;1.00;;;;;;;8.99;67.04;95595.00;2060638;28;20210;-65
2023/12/05 09:28:34;;;;;;;3.95;0.90;;;;;;;8.23;69.37;95595.53;2058981;28;20206;-65
2023/12/05 09:29:36;;;;;;;3.58;1.10;;;;;;;7.28;72.51;95601.16;2055657;28;20747;-65
2023/12/05 09:30:51;;;;;;;1.73;1.00;;;;;;;6.56;75.38;95602.75;2059018;28;20206;-65
2023/12/05 09:31:52;;;;;;;3.78;1.08;;;;;;;6.12;77.09;95603.81;2059163;28;20195;-65
2023/12/05 09:32:54;;;;;;;4.35;0.90;;;;;;;6.10;77.15;95600.47;2059779;28;20543;-65
2023/12/05 09:33:57;;;;;;;3.95;1.20;;;;;;;6.35;77.43;95597.63;2057554;28;20200;-64
2023/12/05 09:34:59;;;;;;;4.32;1.02;;;;;;;5.98;78.66;95607.84;2057999;28;20291;-64
2023/12/05 09:36:03;;;;;;;6.10;1.25;;;;;;;7.38;75.20;95604.13;2059332;28;20217;-64
2023/12/05 09:37:04;;;;;;;2.95;1.30;;;;;;;7.98;72.52;95611.56;2059428;28;20865;-63
2023/12/05 09:38:07;;;;;;;2.67;1.30;;;;;;;8.41;70.85;95613.72;2060003;28;20337;-66
2023/12/05 09:39:10;;;;;;;3.95;1.00;;;;;;;8.92;69.57;95614.47;2059327;28;20833;-60
2023/12/05 09:40:13;;;;;;;4.07;1.20;;;;;;;10.00;67.24;95604.09;2059913;28;20693;-60
2023/12/05 09:41:15;;;;;;;6.53;1.50;;;;;;;10.30;65.55;95610.09;2059167;28;20198;-60
2023/12/05 09:42:19;;;;;;;1.67;0.93;;;;;;;10.23;65.13;95600.13;2058835;28;20750;-60
2023/12/05 09:43:23;;;;;;;4.35;1.35;;;;;;;10.28;64.69;95605.91;2059598;28;20195;-60
2023/12/05 09:44:25;;;;;;;8.05;1.05;;;;;;;10.16;64.99;95604.88;2058451;28;20297;-60
2023/12/05 09:45:34;;;;;;;2.97;1.05;;;;;;;10.36;64.47;95598.50;2058375;28;20203;-60
2023/12/05 09:46:36;;;;;;;3.15;1.23;;;;;;;10.06;64.45;95607.19;2060135;28;20199;-61
2023/12/05 09:47:58;;;;;;;3.22;1.00;;;;;;;9.99;65.21;95602.44;2058717;28;20195;-60
2023/12/05 09:49:03;;;;;;;2.83;1.13;;;;;;;10.17;64.92;95600.50;2059022;28;20297;-60
2023/12/05 09:50:05;;;;;;;6.40;0.90;;;;;;;10.44;64.32;95600.66;2058162;28;20227;-60
2023/12/05 09:51:08;;;;;;;2.90;1.13;;;;;;;10.75;63.53;95598.75;2059100;28;20209;-60
2023/12/05 09:52:10;;;;;;;2.50;0.90;;;;;;;11.57;61.71;95599.66;2058499;28;20207;-60
2023/12/05 09:53:14;;;;;;;4.13;1.08;;;;;;;11.28;62.30;95601.53;2058208;28;20254;-60
2023/12/05 09:54:15;;;;;;;4.72;1.60;;;;;;;11.62;60.88;95595.88;2059212;28;20725;-60
2023/12/05 09:55:17;;;;;;;2.80;1.00;;;;;;;10.94;62.12;95614.97;2060879;28;20230;-60
2023/12/05 09:56:22;;;;;;;6.20;1.10;;;;;;;11.33;61.13;95599.47;2061810;28;20214;-61
2023/12/05 09:57:24;;;;;;;4.63;1.10;;;;;;;11.24;60.70;95595.66;2059921;28;20731;-61
2023/12/05 09:58:26;;;;;;;2.55;1.02;;;;;;;12.05;60.51;95598.31;2057669;28;20205;-60
2023/12/05 09:59:28;;;;;;;2.08;0.90;;;;;;;11.81;60.19;95593.75;2058565;28;20688;-60
2023/12/05 10:00:30;;;;;;;2.58;1.10;;;;;;;12.09;59.47;95600.59;2060704;28;20206;-61
2023/12/05 10:01:34;;;;;;;1.90;0.90;;;;;;;11.81;59.67;95588.50;2059210;28;20202;-61
2023/12/05 10:02:37;;;;;;;1.73;0.80;;;;;;;11.06;60.77;95596.84;2060443;28;20226;-60
2023/12/05 10:03:40;;;;;;;3.53;0.93;;;;;;;10.54;62.48;95600.91;2058600;28;20202;-60
2023/12/05 10:04:43;;;;;;;3.05;0.60;;;;;;;9.95;63.56;95604.38;2057316;28;20195;-61
2023/12/05 10:05:48;;;;;;;1.75;0.70;;;;;;;9.85;64.11;95601.44;2058575;28;20199;-61
2023/12/05 10:06:51;;;;;;;5.30;0.90;;;;;;;9.82;64.93;95595.59;2056056;28;20609;-64
2023/12/05 10:07:53;;;;;;;3.15;0.98;;;;;;;10.41;64.07;95593.84;2056464;28;20290;-63
2023/12/05 10:08:56;;;;;;;2.03;0.77;;;;;;;10.18;63.32;95589.13;2058095;28;20293;-64
2023/12/05 10:09:59;;;;;;;2.15;0.98;;;;;;;9.98;64.75;95599.00;2052863;28;20650;-64
2023/12/05 10:11:01;;;;;;;4.55;1.30;;;;;;;9.89;64.66;95599.50;2059226;28;20257;-65
2023/12/05 10:12:04;;;;;;;3.45;0.90;;;;;;;9.84;65.18;95591.97;2060487;28;20257;-65
2023/12/05 10:13:05;;;;;;;4.18;1.10;;;;;;;9.73;65.37;95589.16;2060918;28;20234;-63
2023/12/05 10:14:08;;;;;;;4.25;1.50;;;;;;;9.70;65.44;95591.91;2058984;28;20203;-63
2023/12/05 10:15:10;;;;;;;2.13;1.02;;;;;;;9.82;65.33;95595.59;2058460;28;20685;-63
2023/12/05 10:16:13;;;;;;;2.70;1.13;;;;;;;10.01;64.78;95597.97;2058729;28;20890;-64
2023/12/05 10:17:14;;;;;;;4.80;0.85;;;;;;;9.66;64.84;95608.66;2059049;28;20203;-64
2023/12/05 10:18:17;;;;;;;2.25;0.93;;;;;;;9.23;66.11;95596.31;2059566;28;20535;-61
2023/12/05 10:19:22;;;;;;;4.18;1.20;;;;;;;8.96;66.97;95595.16;2059951;28;20210;-61
2023/12/05 10:20:24;;;;;;;3.38;1.10;;;;;;;9.36;66.46;95586.88;2056987;28;20697;-62
2023/12/05 10:21:25;;;;;;;2.47;0.70;;;;;;;9.56;66.23;95592.72;2055688;28;20249;-61
2023/12/05 10:22:30;;;;;;;3.60;1.02;;;;;;;9.74;65.82;95583.84;2059094;28;20247;-61
2023/12/05 10:23:33;;;;;;;1.80;0.80;;;;;;;10.32;63.95;95568.25;2058223;28;20289;-61
2023/12/05 10:24:48;;;;;;;2.40;0.90;;;;;;;10.33;63.44;95564.72;2056896;28;20198;-61
2023/12/05 10:25:49;;;;;;;5.03;0.90;;;;;;;9.70;64.36;95582.34;2056458;28;20252;-62
2023/12/05 10:26:51;;;;;;;3.03;0.90;;;;;;;9.69;64.82;95552.00;2058967;28;20539;-61
2023/12/05 10:28:01;;;;;;;1.58;0.70;;;;;;;9.73;65.27;95576.13;2058930;28;20206;-61
2023/12/05 10:29:03;;;;;;;1.30;0.80;;;;;;;9.48;65.52;95580.13;2055719;28;20650;-61
2023/12/05 10:30:05;;;;;;;5.45;1.05;;;;;;;9.71;65.42;95577.97;2055663;28;20276;-61
2023/12/05 10:31:16;;;;;;;1.50;0.80;;;;;;;9.80;65.42;95572.19;2055857;28;20203;-60
2023/12/05 10:32:26;;;;;;;2.33;0.80;;;;;;;9.63;64.69;95565.38;2057060;28;20198;-60
2023/12/05 10:33:28;;;;;;;2.10;0.70;;;;;;;9.22;65.90;95574.63;2059182;28;20724;-61
2023/12/05 10:34:29;;;;;;;3.55;0.90;;;;;;;9.16;66.02;95577.59;2054914;28;20318;-61
2023/12/05 10:35:31;;;;;;;1.77;0.80;;;;;;;9.52;65.50;95568.59;2057498;28;20645;-61
2023/12/05 10:36:32;;;;;;;7.18;0.90;;;;;;;9.38;65.55;95574.59;2057976;28;20227;-61
2023/12/05 10:37:34;;;;;;;1.88;0.70;;;;;;;9.28;66.54;95563.00;2059925;28;20290;-61
2023/12/05 10:38:36;;;;;;;3.30;0.90;;;;;;;9.49;65.39;95589.63;2060253;28;20206;-61
2023/12/05 10:39:38;;;;;;;2.13;0.85;;;;;;;8.93;66.21;95566.69;2059652;28;20202;-61
2023/12/05 10:40:56;;;;;;;3.85;0.90;;;;;;;9.18;66.61;95567.94;2055711;28;20203;-60
2023/12/05 10:41:58;;;;;;;5.13;1.05;;;;;;;9.30;66.06;95577.63;2057172;28;20195;-60
2023/12/05 10:42:59;;;;;;;1.85;0.80;;;;;;;9.90;65.04;95572.50;2057069;28;20580;-60
2023/12/05 10:44:02;;;;;;;2.17;0.70;;;;;;;8.52;67.18;95572.38;2058897;28;20209;-61
2023/12/05 10:45:07;;;;;;;2.30;0.90;;;;;;;7.50;70.63;95570.63;2061619;28;20269;-60
2023/12/05 10:46:09;;;;;;;1.77;0.80;;;;;;;8.83;68.65;95558.53;2061508;28;20202;-60
2023/12/05 10:47:13;;;;;;;2.47;0.80;;;;;;;9.01;67.00;95578.44;2059163;28;20198;-61
2023/12/05 10:48:17;;;;;;;2.08;0.60;;;;;;;8.77;67.27;95571.03;2065688;28;20201;-61
2023/12/05 10:49:18;;;;;;;3.05;1.00;;;;;;;9.41;66.25;95577.03;2062622;28;20600;-60
2023/12/05 10:50:20;;;;;;;1.95;0.80;;;;;;;9.07;65.96;95571.13;2048277;28;20623;-61
2023/12/05 10:51:26;;;;;;;3.97;0.88;;;;;;;9.15;66.45;95581.97;2059246;28;20207;-60
2023/12/05 10:52:31;;;;;;;2.20;0.88;;;;;;;8.81;66.93;95582.97;2055348;28;20225;-60
2023/12/05 10:53:36;;;;;;;4.30;1.00;;;;;;;8.65;67.20;95569.97;2058192;28;20253;-60
2023/12/05 10:54:42;;;;;;;2.75;0.88;;;;;;;9.08;66.70;95569.38;2059224;28;20203;-60
2023/12/05 10:55:44;;;;;;;2.35;0.73;;;;;;;9.46;66.45;95568.97;2059126;28;20210;-60
2023/12/05 10:56:57;;;;;;;2.92;0.80;;;;;;;9.56;65.69;95575.31;2059556;28;20728;-60
2023/12/05 10:58:00;;;;;;;1.60;0.75;;;;;;;9.73;65.00;95568.28;2058935;28;20205;-61
2023/12/05 10:59:03;;;;;;;4.47;0.90;;;;;;;10.03;64.68;95567.41;2059016;28;20210;-60
2023/12/05 11:00:08;;;;;;;1.60;0.80;;;;;;;9.68;64.65;95550.31;2057251;28;20223;-61
2023/12/05 11:01:11;;;;;;;2.05;0.85;;;;;;;9.73;65.15;95561.31;2061527;28;20530;-61
2023/12/05 11:02:14;;;;;;;2.42;0.70;;;;;;;9.41;65.08;95568.41;2062701;28;20286;-62
2023/12/05 11:03:17;;;;;;;3.63;0.85;;;;;;;9.27;65.60;95538.75;2059434;28;20206;-61
2023/12/05 11:04:19;;;;;;;1.58;0.80;;;;;;;9.30;65.74;95559.41;2058214;28;20199;-61
2023/12/05 11:05:21;;;;;;;3.25;0.80;;;;;;;8.59;66.81;95539.88;2045740;28;20230;-61
2023/12/05 11:06:23;;;;;;;2.85;0.70;;;;;;;8.56;67.63;95555.69;2061722;28;20199;-61
2023/12/05 11:07:24;;;;;;;3.50;1.00;;;;;;;8.66;67.65;95554.25;2059034;28;20206;-62
2023/12/05 11:08:26;;;;;;;3.38;1.10;;;;;;;9.19;66.44;95559.16;2058075;28;20233;-60
2023/12/05 11:09:27;;;;;;;2.13;1.00;;;;;;;8.96;66.89;95582.16;2061287;28;20195;-60
2023/12/05 11:10:29;;;;;;;1.38;0.60;;;;;;;8.92;67.35;95544.16;2055533;28;20223;-60
2023/12/05 11:11:33;;;;;;;2.38;0.70;;;;;;;8.85;67.19;95553.25;2056083;28;20203;-59
2023/12/05 11:12:36;;;;;;;1.30;0.70;;;;;;;8.76;67.59;95551.16;2057112;28;20221;-60
2023/12/05 11:13:40;;;;;;;2.22;0.88;;;;;;;8.81;67.78;95544.78;2056328;28;20255;-61
2023/12/05 11:14:45;;;;;;;3.17;0.93;;;;;;;8.56;67.81;95549.63;2055183;28;20202;-61
2023/12/05 11:15:49;;;;;;;3.00;1.05;;;;;;;8.75;67.98;95554.69;2059178;28;20249;-61
2023/12/05 11:16:53;;;;;;;3.25;0.90;;;;;;;9.24;66.63;95551.09;2056046;28;20222;-61
2023/12/05 11:18:00;;;;;;;2.10;0.90;;;;;;;9.30;66.62;95546.38;2062528;28;20281;-61
2023/12/05 11:19:42;;;;;;;2.30;0.70;;;;;;;8.47;68.41;95543.19;2054987;28;20639;-60
2023/12/05 11:21:04;;;;;;;3.17;1.13;;;;;;;8.83;67.46;95550.72;2039141;28;20242;-61
2023/12/05 11:22:24;;;;;;;1.40;0.70;;;;;;;8.70;67.73;95543.66;2057161;28;20241;-60
2023/12/05 11:23:44;;;;;;;3.85;0.77;;;;;;;8.47;68.31;95540.56;2055222;28;20202;-61
2023/12/05 11:25:15;;;;;;;2.47;0.80;;;;;;;8.71;67.58;95550.56;2057773;28;20263;-60
2023/12/05 11:27:05;;;;;;;1.75;0.85;;;;;;;8.90;66.88;95542.56;2057704;28;20233;-61
2023/12/05 11:28:24;;;;;;;5.40;0.80;;;;;;;8.63;68.12;95557.03;2054644;28;20831;-61
2023/12/05 11:30:00;;;;;;;2.00;0.80;;;;;;;8.95;67.73;95550.97;2057318;28;20203;-61
2023/12/05 11:31:21;;;;;;;9.48;0.70;;;;;;;8.70;67.32;95556.69;2058144;28;20219;-64
2023/12/05 11:33:04;;;;;;;2.97;0.70;;;;;;;8.73;67.46;95549.53;2065672;28;20202;-64
2023/12/05 11:34:06;;;;;;;2.22;0.90;;;;;;;9.40;66.81;95557.13;2050322;28;20198;-63
2023/12/05 11:35:16;;;;;;;2.03;0.60;;;;;;;9.40;66.32;95557.13;2058070;28;20249;-63
2023/12/05 11:36:29;;;;;;;1.90;0.80;;;;;;;9.14;66.38;95549.03;2058530;28;20218;-62
2023/12/05 11:37:48;;;;;;;2.00;0.77;;;;;;;8.98;66.90;95551.63;2060057;28;20210;-64
2023/12/05 11:38:51;;;;;;;2.75;0.60;;;;;;;8.75;67.60;95557.28;2058159;28;20713;-64
2023/12/05 11:39:53;;;;;;;3.90;0.88;;;;;;;8.81;67.83;95549.97;2059244;28;20258;-61
2023/12/05 11:41:17;;;;;;;1.67;0.85;;;;;;;8.90;67.58;95539.97;2058158;28;20231;-61
2023/12/05 11:42:19;;;;;;;3.20;0.80;;;;;;;8.86;67.29;95544.50;2058874;28;20235;-61
2023/12/05 11:43:20;;;;;;;1.60;0.70;;;;;;;8.67;67.35;95531.66;2059282;28;20766;-61
2023/12/05 11:44:22;;;;;;;4.47;0.70;;;;;;;8.84;67.24;95541.16;2058474;28;20210;-63
2023/12/05 11:45:24;;;;;;;4.38;0.70;;;;;;;8.98;66.90;95533.41;2057146;28;20305;-61
2023/12/05 11:46:33;;;;;;;2.60;0.80;;;;;;;8.64;67.73;95542.25;2060144;28;20199;-61
2023/12/05 11:47:35;;;;;;;1.85;0.70;;;;;;;8.63;68.16;95545.78;2055303;28;20728;-61
2023/12/05 11:48:36;;;;;;;1.52;0.70;;;;;;;8.54;68.08;95564.50;2055984;28;20199;-62
2023/12/05 11:49:47;;;;;;;2.50;0.90;;;;;;;8.54;68.42;95531.50;2057350;28;20314;-61
2023/12/05 11:50:48;;;;;;;1.48;0.70;;;;;;;8.54;68.68;95552.31;2058846;28;20293;-61
2023/12/05 11:51:51;;;;;;;4.82;1.38;;;;;;;8.78;68.21;95528.47;2058740;28;20379;-60
2023/12/05 11:52:56;;;;;;;4.70;0.70;;;;;;;8.28;68.91;95543.28;2057863;28;20206;-60
2023/12/05 11:54:01;;;;;;;2.10;0.75;;;;;;;7.69;71.10;95561.88;2057383;28;20199;-61
2023/12/05 11:55:04;;;;;;;2.58;0.70;;;;;;;7.12;72.84;95552.56;2057005;28;20222;-60
2023/12/05 11:56:18;;;;;;;2.42;0.82;;;;;;;7.36;72.65;95552.25;2057407;28;20202;-61
2023/12/05 11:57:21;;;;;;;1.30;0.60;;;;;;;6.94;73.58;95546.47;2065854;28;20255;-61
2023/12/05 11:58:34;;;;;;;1.10;0.63;;;;;;;6.99;74.62;95559.25;2065664;28;20229;-61
2023/12/05 11:59:40;;;;;;;3.50;0.75;;;;;;;6.79;75.34;95555.84;2058482;28;20689;-61
2023/12/05 12:00:44;;;;;;;1.80;0.60;;;;;;;7.26;73.22;95554.47;2059360;28;20207;-60
2023/12/05 12:01:48;;;;;;;2.53;0.60;;;;;;;7.96;72.30;95556.19;2059057;28;20241;-60
2023/12/05 12:02:59;;;;;;;1.52;0.70;;;;;;;8.30;70.96;95546.63;2059910;28;20211;-61
2023/12/05 12:04:01;;;;;;;1.63;0.75;;;;;;;8.68;69.08;95566.34;2058296;28;20772;-61
2023/12/05 12:05:09;;;;;;;1.65;0.70;;;;;;;7.22;73.01;95558.13;2057133;28;20219;-61
2023/12/05 12:06:11;;;;;;;1.92;0.77;;;;;;;6.68;74.89;95563.28;2058686;28;20214;-60
2023/12/05 12:07:13;;;;;;;3.47;0.95;;;;;;;6.54;75.70;95559.56;2058951;28;20282;-61
2023/12/05 12:08:15;;;;;;;1.58;0.93;;;;;;;6.21;76.79;95567.13;2057968;28;20250;-61
2023/12/05 12:09:17;;;;;;;1.98;0.80;;;;;;;6.24;77.88;95568.75;2055268;28;20259;-60
2023/12/05 12:10:19;;;;;;;2.47;0.70;;;;;;;5.98;78.30;95544.78;2058176;28;20310;-61
2023/12/05 12:11:21;;;;;;;6.25;1.00;;;;;;;6.03;78.38;95548.88;2058449;28;20206;-61
2023/12/05 12:12:22;;;;;;;3.35;0.80;;;;;;;6.08;78.59;95555.63;2058763;28;20195;-63
2023/12/05 12:13:25;;;;;;;2.17;1.00;;;;;;;5.87;78.91;95547.84;2056650;28;20760;-63
2023/12/05 12:14:26;;;;;;;5.50;3.05;;;;;;;6.06;79.44;95563.47;2058045;28;20285;-62
2023/12/05 12:15:35;;;;;;;8.57;2.67;;;;;;;6.45;77.45;95570.38;2057085;28;20234;-62
2023/12/05 12:16:38;;;;;;;3.28;1.15;;;;;;;7.44;74.85;95570.06;2057936;28;20203;-63
2023/12/05 12:17:44;;;;;;;2.63;0.80;;;;;;;8.03;72.06;95567.97;2056907;28;20215;-63
2023/12/05 12:18:46;;;;;;;2.78;0.80;;;;;;;8.21;71.25;95573.97;2057733;28;20298;-63
2023/12/05 12:19:56;;;;;;;2.35;0.70;;;;;;;8.37;70.63;95571.41;2054303;28;20262;-63
2023/12/05 12:20:59;;;;;;;3.08;0.90;;;;;;;8.65;69.98;95576.00;2059684;28;20206;-63
2023/12/05 12:22:05;;;;;;;3.15;1.17;;;;;;;8.80;69.44;95574.31;2060485;28;20207;-63
2023/12/05 12:23:07;;;;;;;2.60;0.80;;;;;;;8.77;69.15;95571.91;2060148;28;20199;-63
2023/12/05 12:24:20;;;;;;;1.30;0.73;;;;;;;8.89;68.88;95566.91;2060710;28;20242;-63
2023/12/05 12:25:22;;;;;;;3.90;0.80;;;;;;;9.14;68.65;95559.44;2059378;28;20258;-63
2023/12/05 12:26:23;;;;;;;4.25;0.70;;;;;;;9.39;68.06;95565.03;2058182;28;20557;-63
2023/12/05 12:27:33;;;;;;;3.60;0.70;;;;;;;9.36;67.31;95568.66;2060770;28;20258;-63
2023/12/05 12:28:35;;;;;;;1.85;0.80;;;;;;;9.19;67.25;95560.94;2060193;28;20727;-63
2023/12/05 12:29:37;;;;;;;1.45;0.63;;;;;;;8.95;67.29;95557.03;2059784;28;20774;-63
2023/12/05 12:30:38;;;;;;;4.45;0.93;;;;;;;8.76;68.99;95575.44;2060162;28;20560;-63
2023/12/05 12:31:40;;;;;;;5.68;0.85;;;;;;;8.82;68.32;95561.22;2060100;28;20203;-63
2023/12/05 12:32:55;;;;;;;3.05;0.85;;;;;;;9.31;67.76;95571.50;2059793;28;20265;-63
2023/12/05 12:33:58;;;;;;;2.22;0.70;;;;;;;9.27;67.15;95563.97;2067277;28;20248;-63
2023/12/05 12:35:01;;;;;;;1.95;0.70;;;;;;;9.30;67.50;95561.19;2066351;28;20225;-63
2023/12/05 12:36:05;;;;;;;1.23;0.60;;;;;;;8.93;67.89;95566.69;2065439;28;20206;-63
2023/12/05 12:37:10;;;;;;;1.52;0.75;;;;;;;8.97;68.08;95569.97;2068568;28;20193;-63
2023/12/05 12:38:22;;;;;;;3.35;1.00;;;;;;;8.90;68.16;95566.88;2068842;28;20197;-63
2023/12/05 12:39:27;;;;;;;3.22;1.10;;;;;;;9.21;67.96;95565.13;2068443;28;20703;-63
2023/12/05 12:40:28;;;;;;;4.00;1.10;;;;;;;9.01;67.56;95565.41;2059272;28;20713;-63